sensor_id;sensor_type;location;lat;lon;timestamp;P1;durP1;ratioP1;P2;durP2;ratioP2
16352;SDS011;8286;51.274;9.542;2023-04-24T00:00:57;0.97;;;0.97;;
16352;SDS011;8286;51.274;9.542;2023-04-24T00:03:24;0.93;;;0.93;;
16352;SDS011;8286;51.274;9.542;2023-04-24T00:05:52;2.93;;;1.00;;
16352;SDS011;8286;51.274;9.542;2023-04-24T00:08:19;1.00;;;0.93;;
16352;SDS011;8286;51.274;9.542;2023-04-24T00:10:47;0.90;;;0.90;;
16352;SDS011;8286;51.274;9.542;2023-04-24T00:13:14;1.87;;;1.00;;
16352;SDS011;8286;51.274;9.542;2023-04-24T00:15:41;0.73;;;0.73;;
16352;SDS011;8286;51.274;9.542;2023-04-24T00:18:08;1.27;;;0.97;;
16352;SDS011;8286;51.274;9.542;2023-04-24T00:20:34;0.83;;;0.83;;
16352;SDS011;8286;51.274;9.542;2023-04-24T00:23:01;1.57;;;1.00;;
16352;SDS011;8286;51.274;9.542;2023-04-24T00:25:28;0.90;;;0.90;;
16352;SDS011;8286;51.274;9.542;2023-04-24T00:27:54;1.90;;;1.10;;
16352;SDS011;8286;51.274;9.542;2023-04-24T00:30:21;1.27;;;1.17;;
16352;SDS011;8286;51.274;9.542;2023-04-24T00:32:48;1.60;;;1.50;;
16352;SDS011;8286;51.274;9.542;2023-04-24T00:35:15;2.60;;;1.00;;
16352;SDS011;8286;51.274;9.542;2023-04-24T00:37:42;1.43;;;0.90;;
16352;SDS011;8286;51.274;9.542;2023-04-24T00:40:08;1.13;;;0.90;;
16352;SDS011;8286;51.274;9.542;2023-04-24T00:42:36;1.03;;;1.03;;
16352;SDS011;8286;51.274;9.542;2023-04-24T00:45:02;0.90;;;0.90;;
16352;SDS011;8286;51.274;9.542;2023-04-24T00:47:31;0.83;;;0.80;;
16352;SDS011;8286;51.274;9.542;2023-04-24T00:50:01;0.87;;;0.87;;
16352;SDS011;8286;51.274;9.542;2023-04-24T00:52:28;0.70;;;0.70;;
16352;SDS011;8286;51.274;9.542;2023-04-24T00:54:56;1.10;;;1.00;;
16352;SDS011;8286;51.274;9.542;2023-04-24T00:57:22;0.87;;;0.80;;
16352;SDS011;8286;51.274;9.542;2023-04-24T00:59:49;1.23;;;0.83;;
16352;SDS011;8286;51.274;9.542;2023-04-24T01:02:16;1.73;;;0.90;;
16352;SDS011;8286;51.274;9.542;2023-04-24T01:04:43;0.77;;;0.77;;
16352;SDS011;8286;51.274;9.542;2023-04-24T01:07:11;0.83;;;0.83;;
16352;SDS011;8286;51.274;9.542;2023-04-24T01:09:38;0.63;;;0.63;;
16352;SDS011;8286;51.274;9.542;2023-04-24T01:12:06;0.70;;;0.70;;
16352;SDS011;8286;51.274;9.542;2023-04-24T01:14:33;1.43;;;0.80;;
16352;SDS011;8286;51.274;9.542;2023-04-24T01:17:00;1.00;;;0.70;;
16352;SDS011;8286;51.274;9.542;2023-04-24T01:19:26;1.07;;;1.07;;
16352;SDS011;8286;51.274;9.542;2023-04-24T01:21:53;1.23;;;1.00;;
16352;SDS011;8286;51.274;9.542;2023-04-24T01:24:21;0.90;;;0.90;;
16352;SDS011;8286;51.274;9.542;2023-04-24T01:26:48;0.50;;;0.50;;
16352;SDS011;8286;51.274;9.542;2023-04-24T01:29:14;0.90;;;0.90;;
16352;SDS011;8286;51.274;9.542;2023-04-24T01:31:41;0.77;;;0.77;;
16352;SDS011;8286;51.274;9.542;2023-04-24T01:34:08;2.37;;;1.03;;
16352;SDS011;8286;51.274;9.542;2023-04-24T01:36:35;1.20;;;1.10;;
16352;SDS011;8286;51.274;9.542;2023-04-24T01:39:02;1.20;;;0.97;;
16352;SDS011;8286;51.274;9.542;2023-04-24T01:41:30;1.07;;;0.97;;
16352;SDS011;8286;51.274;9.542;2023-04-24T01:43:57;0.90;;;0.90;;
16352;SDS011;8286;51.274;9.542;2023-04-24T01:46:24;1.13;;;0.80;;
16352;SDS011;8286;51.274;9.542;2023-04-24T01:48:51;0.80;;;0.80;;
16352;SDS011;8286;51.274;9.542;2023-04-24T01:51:18;2.03;;;0.97;;
16352;SDS011;8286;51.274;9.542;2023-04-24T01:53:44;2.60;;;0.93;;
16352;SDS011;8286;51.274;9.542;2023-04-24T01:56:11;2.57;;;1.10;;
16352;SDS011;8286;51.274;9.542;2023-04-24T01:58:39;1.60;;;1.00;;
16352;SDS011;8286;51.274;9.542;2023-04-24T02:01:06;2.20;;;0.97;;
16352;SDS011;8286;51.274;9.542;2023-04-24T02:03:32;0.97;;;0.97;;
16352;SDS011;8286;51.274;9.542;2023-04-24T02:05:59;1.00;;;1.00;;
16352;SDS011;8286;51.274;9.542;2023-04-24T02:08:25;1.20;;;1.20;;
16352;SDS011;8286;51.274;9.542;2023-04-24T02:10:52;5.60;;;1.37;;
16352;SDS011;8286;51.274;9.542;2023-04-24T02:13:18;1.73;;;1.63;;
16352;SDS011;8286;51.274;9.542;2023-04-24T02:15:46;1.20;;;1.20;;
16352;SDS011;8286;51.274;9.542;2023-04-24T02:18:13;1.30;;;1.17;;
16352;SDS011;8286;51.274;9.542;2023-04-24T02:20:40;2.60;;;1.63;;
16352;SDS011;8286;51.274;9.542;2023-04-24T02:23:07;1.60;;;1.30;;
16352;SDS011;8286;51.274;9.542;2023-04-24T02:25:33;5.40;;;1.10;;
16352;SDS011;8286;51.274;9.542;2023-04-24T02:28:00;1.70;;;1.17;;
16352;SDS011;8286;51.274;9.542;2023-04-24T02:30:27;1.33;;;1.20;;
16352;SDS011;8286;51.274;9.542;2023-04-24T02:32:55;1.10;;;1.00;;
16352;SDS011;8286;51.274;9.542;2023-04-24T02:35:21;2.07;;;1.20;;
16352;SDS011;8286;51.274;9.542;2023-04-24T02:37:48;1.80;;;0.90;;
16352;SDS011;8286;51.274;9.542;2023-04-24T02:40:14;2.40;;;1.20;;
16352;SDS011;8286;51.274;9.542;2023-04-24T02:42:41;2.23;;;1.17;;
16352;SDS011;8286;51.274;9.542;2023-04-24T02:45:07;0.83;;;0.83;;
16352;SDS011;8286;51.274;9.542;2023-04-24T02:47:34;1.10;;;0.97;;
16352;SDS011;8286;51.274;9.542;2023-04-24T02:50:03;1.17;;;1.00;;
16352;SDS011;8286;51.274;9.542;2023-04-24T02:52:30;0.93;;;0.93;;
16352;SDS011;8286;51.274;9.542;2023-04-24T02:54:56;2.93;;;1.20;;
16352;SDS011;8286;51.274;9.542;2023-04-24T02:57:23;1.60;;;0.90;;
16352;SDS011;8286;51.274;9.542;2023-04-24T02:59:49;1.10;;;1.10;;
16352;SDS011;8286;51.274;9.542;2023-04-24T03:02:16;2.43;;;1.20;;
16352;SDS011;8286;51.274;9.542;2023-04-24T03:04:42;1.10;;;0.80;;
16352;SDS011;8286;51.274;9.542;2023-04-24T03:07:12;0.90;;;0.90;;
16352;SDS011;8286;51.274;9.542;2023-04-24T03:09:38;1.30;;;1.20;;
16352;SDS011;8286;51.274;9.542;2023-04-24T03:12:05;1.40;;;1.30;;
16352;SDS011;8286;51.274;9.542;2023-04-24T03:14:32;1.20;;;1.10;;
16352;SDS011;8286;51.274;9.542;2023-04-24T03:16:58;1.00;;;1.00;;
16352;SDS011;8286;51.274;9.542;2023-04-24T03:19:25;3.23;;;1.20;;
16352;SDS011;8286;51.274;9.542;2023-04-24T03:21:51;1.93;;;1.20;;
16352;SDS011;8286;51.274;9.542;2023-04-24T03:24:19;1.00;;;1.00;;
16352;SDS011;8286;51.274;9.542;2023-04-24T03:26:46;2.30;;;1.10;;
16352;SDS011;8286;51.274;9.542;2023-04-24T03:29:12;1.60;;;1.50;;
16352;SDS011;8286;51.274;9.542;2023-04-24T03:31:39;1.40;;;1.30;;
16352;SDS011;8286;51.274;9.542;2023-04-24T03:34:05;1.30;;;1.20;;
16352;SDS011;8286;51.274;9.542;2023-04-24T03:36:32;2.43;;;1.53;;
16352;SDS011;8286;51.274;9.542;2023-04-24T03:38:58;1.20;;;1.20;;
16352;SDS011;8286;51.274;9.542;2023-04-24T03:41:26;1.97;;;1.60;;
16352;SDS011;8286;51.274;9.542;2023-04-24T03:43:53;1.37;;;1.37;;
16352;SDS011;8286;51.274;9.542;2023-04-24T03:46:20;1.50;;;1.47;;
16352;SDS011;8286;51.274;9.542;2023-04-24T03:48:46;1.57;;;1.47;;
16352;SDS011;8286;51.274;9.542;2023-04-24T03:51:13;2.83;;;1.20;;
16352;SDS011;8286;51.274;9.542;2023-04-24T03:53:39;1.40;;;1.30;;
16352;SDS011;8286;51.274;9.542;2023-04-24T03:56:06;1.30;;;1.20;;
16352;SDS011;8286;51.274;9.542;2023-04-24T03:58:34;1.50;;;1.40;;
16352;SDS011;8286;51.274;9.542;2023-04-24T04:01:00;1.37;;;1.27;;
16352;SDS011;8286;51.274;9.542;2023-04-24T04:03:27;1.37;;;1.27;;
16352;SDS011;8286;51.274;9.542;2023-04-24T04:05:54;2.00;;;1.33;;
16352;SDS011;8286;51.274;9.542;2023-04-24T04:08:20;1.57;;;1.40;;
16352;SDS011;8286;51.274;9.542;2023-04-24T04:10:47;3.47;;;1.23;;
16352;SDS011;8286;51.274;9.542;2023-04-24T04:13:13;1.50;;;1.40;;
16352;SDS011;8286;51.274;9.542;2023-04-24T04:15:41;2.07;;;1.20;;
16352;SDS011;8286;51.274;9.542;2023-04-24T04:18:08;1.23;;;1.07;;
16352;SDS011;8286;51.274;9.542;2023-04-24T04:20:34;1.37;;;1.27;;
16352;SDS011;8286;51.274;9.542;2023-04-24T04:23:01;1.40;;;1.40;;
16352;SDS011;8286;51.274;9.542;2023-04-24T04:25:27;2.50;;;1.30;;
16352;SDS011;8286;51.274;9.542;2023-04-24T04:27:54;1.10;;;1.10;;
16352;SDS011;8286;51.274;9.542;2023-04-24T04:30:20;1.30;;;1.20;;
16352;SDS011;8286;51.274;9.542;2023-04-24T04:32:49;2.03;;;1.30;;
16352;SDS011;8286;51.274;9.542;2023-04-24T04:35:16;1.20;;;1.20;;
16352;SDS011;8286;51.274;9.542;2023-04-24T04:37:43;1.40;;;1.30;;
16352;SDS011;8286;51.274;9.542;2023-04-24T04:40:09;1.53;;;1.40;;
16352;SDS011;8286;51.274;9.542;2023-04-24T04:42:36;1.30;;;1.20;;
16352;SDS011;8286;51.274;9.542;2023-04-24T04:45:05;2.23;;;1.00;;
16352;SDS011;8286;51.274;9.542;2023-04-24T04:47:33;1.00;;;1.00;;
16352;SDS011;8286;51.274;9.542;2023-04-24T04:50:02;2.30;;;0.97;;
16352;SDS011;8286;51.274;9.542;2023-04-24T04:52:28;1.03;;;1.03;;
16352;SDS011;8286;51.274;9.542;2023-04-24T04:54:55;0.93;;;0.93;;
16352;SDS011;8286;51.274;9.542;2023-04-24T04:57:22;1.30;;;1.20;;
16352;SDS011;8286;51.274;9.542;2023-04-24T04:59:48;1.13;;;1.13;;
16352;SDS011;8286;51.274;9.542;2023-04-24T05:02:15;1.20;;;1.20;;
16352;SDS011;8286;51.274;9.542;2023-04-24T05:04:41;1.23;;;1.10;;
16352;SDS011;8286;51.274;9.542;2023-04-24T05:07:09;1.13;;;1.13;;
16352;SDS011;8286;51.274;9.542;2023-04-24T05:09:36;1.90;;;1.20;;
16352;SDS011;8286;51.274;9.542;2023-04-24T05:12:02;1.20;;;1.20;;
16352;SDS011;8286;51.274;9.542;2023-04-24T05:14:29;1.07;;;1.07;;
16352;SDS011;8286;51.274;9.542;2023-04-24T05:16:55;2.37;;;1.83;;
16352;SDS011;8286;51.274;9.542;2023-04-24T05:19:22;3.23;;;1.33;;
16352;SDS011;8286;51.274;9.542;2023-04-24T05:21:48;1.53;;;1.40;;
16352;SDS011;8286;51.274;9.542;2023-04-24T05:24:16;1.00;;;1.00;;
16352;SDS011;8286;51.274;9.542;2023-04-24T05:26:43;2.50;;;1.50;;
16352;SDS011;8286;51.274;9.542;2023-04-24T05:29:09;1.90;;;1.50;;
16352;SDS011;8286;51.274;9.542;2023-04-24T05:31:36;4.10;;;1.40;;
16352;SDS011;8286;51.274;9.542;2023-04-24T05:34:03;1.77;;;1.50;;
16352;SDS011;8286;51.274;9.542;2023-04-24T05:36:30;1.60;;;1.50;;
16352;SDS011;8286;51.274;9.542;2023-04-24T05:38:57;2.57;;;1.60;;
16352;SDS011;8286;51.274;9.542;2023-04-24T05:41:24;1.93;;;1.43;;
16352;SDS011;8286;51.274;9.542;2023-04-24T05:43:51;1.50;;;1.40;;
16352;SDS011;8286;51.274;9.542;2023-04-24T05:46:17;1.60;;;1.50;;
16352;SDS011;8286;51.274;9.542;2023-04-24T05:48:44;1.70;;;1.60;;
16352;SDS011;8286;51.274;9.542;2023-04-24T05:51:10;1.50;;;1.40;;
16352;SDS011;8286;51.274;9.542;2023-04-24T05:53:37;2.03;;;1.93;;
16352;SDS011;8286;51.274;9.542;2023-04-24T05:56:04;1.83;;;1.73;;
16352;SDS011;8286;51.274;9.542;2023-04-24T05:58:32;2.60;;;2.10;;
16352;SDS011;8286;51.274;9.542;2023-04-24T06:00:59;2.10;;;1.90;;
16352;SDS011;8286;51.274;9.542;2023-04-24T06:03:26;2.13;;;1.93;;
16352;SDS011;8286;51.274;9.542;2023-04-24T06:05:53;2.20;;;2.10;;
16352;SDS011;8286;51.274;9.542;2023-04-24T06:08:19;2.30;;;2.10;;
16352;SDS011;8286;51.274;9.542;2023-04-24T06:10:46;3.80;;;2.00;;
16352;SDS011;8286;51.274;9.542;2023-04-24T06:13:12;4.20;;;2.20;;
16352;SDS011;8286;51.274;9.542;2023-04-24T06:15:40;2.40;;;2.20;;
16352;SDS011;8286;51.274;9.542;2023-04-24T06:18:07;3.07;;;2.50;;
16352;SDS011;8286;51.274;9.542;2023-04-24T06:20:35;2.33;;;2.00;;
16352;SDS011;8286;51.274;9.542;2023-04-24T06:23:01;4.13;;;2.50;;
16352;SDS011;8286;51.274;9.542;2023-04-24T06:25:28;4.13;;;2.17;;
16352;SDS011;8286;51.274;9.542;2023-04-24T06:27:55;2.20;;;2.00;;
16352;SDS011;8286;51.274;9.542;2023-04-24T06:30:21;2.07;;;1.80;;
16352;SDS011;8286;51.274;9.542;2023-04-24T06:32:50;2.43;;;2.23;;
16352;SDS011;8286;51.274;9.542;2023-04-24T06:35:17;1.83;;;1.73;;
16352;SDS011;8286;51.274;9.542;2023-04-24T06:37:43;2.00;;;1.90;;
16352;SDS011;8286;51.274;9.542;2023-04-24T06:40:10;1.80;;;1.70;;
16352;SDS011;8286;51.274;9.542;2023-04-24T06:42:37;2.00;;;1.60;;
16352;SDS011;8286;51.274;9.542;2023-04-24T06:45:04;1.75;;;1.65;;
16352;SDS011;8286;51.274;9.542;2023-04-24T06:47:31;1.90;;;1.80;;
16352;SDS011;8286;51.274;9.542;2023-04-24T06:49:58;1.70;;;1.60;;
16352;SDS011;8286;51.274;9.542;2023-04-24T06:52:25;3.27;;;2.03;;
16352;SDS011;8286;51.274;9.542;2023-04-24T06:54:51;2.00;;;1.90;;
16352;SDS011;8286;51.274;9.542;2023-04-24T06:57:18;3.20;;;1.63;;
16352;SDS011;8286;51.274;9.542;2023-04-24T06:59:46;1.90;;;1.80;;
16352;SDS011;8286;51.274;9.542;2023-04-24T07:02:12;3.60;;;1.80;;
16352;SDS011;8286;51.274;9.542;2023-04-24T07:04:39;2.17;;;1.70;;
16352;SDS011;8286;51.274;9.542;2023-04-24T07:07:07;4.03;;;1.90;;
16352;SDS011;8286;51.274;9.542;2023-04-24T07:09:34;4.47;;;2.10;;
16352;SDS011;8286;51.274;9.542;2023-04-24T07:12:03;2.43;;;1.87;;
16352;SDS011;8286;51.274;9.542;2023-04-24T07:14:30;2.30;;;2.10;;
16352;SDS011;8286;51.274;9.542;2023-04-24T07:16:56;2.20;;;2.00;;
16352;SDS011;8286;51.274;9.542;2023-04-24T07:19:23;2.30;;;2.13;;
16352;SDS011;8286;51.274;9.542;2023-04-24T07:21:50;4.77;;;2.30;;
16352;SDS011;8286;51.274;9.542;2023-04-24T07:24:18;4.27;;;2.30;;
16352;SDS011;8286;51.274;9.542;2023-04-24T07:26:44;2.23;;;2.00;;
16352;SDS011;8286;51.274;9.542;2023-04-24T07:29:13;2.50;;;2.30;;
16352;SDS011;8286;51.274;9.542;2023-04-24T07:31:40;2.97;;;2.67;;
16352;SDS011;8286;51.274;9.542;2023-04-24T07:34:07;2.10;;;1.93;;
16352;SDS011;8286;51.274;9.542;2023-04-24T07:36:33;3.60;;;2.60;;
16352;SDS011;8286;51.274;9.542;2023-04-24T07:39:00;2.83;;;2.30;;
16352;SDS011;8286;51.274;9.542;2023-04-24T07:41:28;2.50;;;2.30;;
16352;SDS011;8286;51.274;9.542;2023-04-24T07:43:54;3.87;;;2.67;;
16352;SDS011;8286;51.274;9.542;2023-04-24T07:46:21;4.63;;;2.60;;
16352;SDS011;8286;51.274;9.542;2023-04-24T07:48:48;2.97;;;2.70;;
16352;SDS011;8286;51.274;9.542;2023-04-24T07:51:14;3.63;;;2.70;;
16352;SDS011;8286;51.274;9.542;2023-04-24T07:53:42;2.60;;;2.40;;
16352;SDS011;8286;51.274;9.542;2023-04-24T07:56:09;2.13;;;2.03;;
16352;SDS011;8286;51.274;9.542;2023-04-24T07:58:44;6.47;;;2.43;;
16352;SDS011;8286;51.274;9.542;2023-04-24T08:01:10;3.33;;;2.47;;
16352;SDS011;8286;51.274;9.542;2023-04-24T08:03:37;3.30;;;2.30;;
16352;SDS011;8286;51.274;9.542;2023-04-24T08:06:04;2.73;;;2.13;;
16352;SDS011;8286;51.274;9.542;2023-04-24T08:08:30;2.90;;;2.00;;
16352;SDS011;8286;51.274;9.542;2023-04-24T08:10:57;2.67;;;2.47;;
16352;SDS011;8286;51.274;9.542;2023-04-24T08:13:29;4.30;;;2.83;;
16352;SDS011;8286;51.274;9.542;2023-04-24T08:15:57;3.73;;;2.30;;
16352;SDS011;8286;51.274;9.542;2023-04-24T08:18:24;3.33;;;2.57;;
16352;SDS011;8286;51.274;9.542;2023-04-24T08:20:51;4.00;;;2.33;;
16352;SDS011;8286;51.274;9.542;2023-04-24T08:23:17;3.03;;;2.47;;
16352;SDS011;8286;51.274;9.542;2023-04-24T08:25:44;3.10;;;2.80;;
16352;SDS011;8286;51.274;9.542;2023-04-24T08:28:10;2.87;;;2.60;;
16352;SDS011;8286;51.274;9.542;2023-04-24T08:30:37;4.23;;;2.80;;
16352;SDS011;8286;51.274;9.542;2023-04-24T08:33:05;3.87;;;2.87;;
16352;SDS011;8286;51.274;9.542;2023-04-24T08:35:32;3.23;;;2.80;;
16352;SDS011;8286;51.274;9.542;2023-04-24T08:37:58;2.97;;;2.30;;
16352;SDS011;8286;51.274;9.542;2023-04-24T08:40:27;3.80;;;2.53;;
16352;SDS011;8286;51.274;9.542;2023-04-24T08:42:55;2.90;;;2.70;;
16352;SDS011;8286;51.274;9.542;2023-04-24T08:45:22;5.30;;;2.70;;
16352;SDS011;8286;51.274;9.542;2023-04-24T08:47:51;2.70;;;2.50;;
16352;SDS011;8286;51.274;9.542;2023-04-24T08:50:19;2.70;;;2.50;;
16352;SDS011;8286;51.274;9.542;2023-04-24T08:52:46;3.30;;;2.93;;
16352;SDS011;8286;51.274;9.542;2023-04-24T08:55:14;2.80;;;2.43;;
16352;SDS011;8286;51.274;9.542;2023-04-24T08:57:43;2.77;;;2.47;;
16352;SDS011;8286;51.274;9.542;2023-04-24T09:00:11;7.50;;;3.30;;
16352;SDS011;8286;51.274;9.542;2023-04-24T09:02:39;2.63;;;2.43;;
16352;SDS011;8286;51.274;9.542;2023-04-24T09:05:08;3.27;;;2.37;;
16352;SDS011;8286;51.274;9.542;2023-04-24T09:07:37;2.77;;;1.90;;
16352;SDS011;8286;51.274;9.542;2023-04-24T09:10:05;2.23;;;2.03;;
16352;SDS011;8286;51.274;9.542;2023-04-24T09:12:33;2.30;;;2.10;;
16352;SDS011;8286;51.274;9.542;2023-04-24T09:15:00;2.70;;;2.50;;
16352;SDS011;8286;51.274;9.542;2023-04-24T09:17:27;4.40;;;2.60;;
16352;SDS011;8286;51.274;9.542;2023-04-24T09:19:53;5.60;;;2.27;;
16352;SDS011;8286;51.274;9.542;2023-04-24T09:22:20;3.57;;;2.30;;
16352;SDS011;8286;51.274;9.542;2023-04-24T09:24:48;3.27;;;2.00;;
16352;SDS011;8286;51.274;9.542;2023-04-24T09:27:26;2.53;;;2.33;;
16352;SDS011;8286;51.274;9.542;2023-04-24T09:29:54;2.27;;;2.10;;
16352;SDS011;8286;51.274;9.542;2023-04-24T09:32:22;4.47;;;2.60;;
16352;SDS011;8286;51.274;9.542;2023-04-24T09:35:04;4.13;;;2.87;;
16352;SDS011;8286;51.274;9.542;2023-04-24T09:37:34;2.90;;;2.67;;
16352;SDS011;8286;51.274;9.542;2023-04-24T09:40:09;4.10;;;2.30;;
16352;SDS011;8286;51.274;9.542;2023-04-24T09:42:37;2.97;;;2.43;;
16352;SDS011;8286;51.274;9.542;2023-04-24T09:45:04;5.23;;;3.20;;
16352;SDS011;8286;51.274;9.542;2023-04-24T09:47:35;5.67;;;3.20;;
16352;SDS011;8286;51.274;9.542;2023-04-24T09:50:08;4.40;;;2.57;;
16352;SDS011;8286;51.274;9.542;2023-04-24T09:52:35;2.60;;;2.40;;
16352;SDS011;8286;51.274;9.542;2023-04-24T09:55:11;2.30;;;2.10;;
16352;SDS011;8286;51.274;9.542;2023-04-24T09:57:46;2.40;;;2.20;;
16352;SDS011;8286;51.274;9.542;2023-04-24T10:00:17;2.13;;;1.93;;
16352;SDS011;8286;51.274;9.542;2023-04-24T10:02:45;3.73;;;2.80;;
16352;SDS011;8286;51.274;9.542;2023-04-24T10:05:16;2.70;;;2.50;;
16352;SDS011;8286;51.274;9.542;2023-04-24T10:07:43;2.47;;;2.27;;
16352;SDS011;8286;51.274;9.542;2023-04-24T10:10:11;5.37;;;2.40;;
16352;SDS011;8286;51.274;9.542;2023-04-24T10:12:38;3.33;;;2.30;;
16352;SDS011;8286;51.274;9.542;2023-04-24T10:15:05;2.13;;;1.93;;
16352;SDS011;8286;51.274;9.542;2023-04-24T10:17:34;2.63;;;2.37;;
16352;SDS011;8286;51.274;9.542;2023-04-24T10:20:01;3.10;;;1.97;;
16352;SDS011;8286;51.274;9.542;2023-04-24T10:22:28;2.03;;;1.90;;
16352;SDS011;8286;51.274;9.542;2023-04-24T10:24:55;2.23;;;2.03;;
16352;SDS011;8286;51.274;9.542;2023-04-24T10:27:23;1.80;;;1.70;;
16352;SDS011;8286;51.274;9.542;2023-04-24T10:29:51;1.80;;;1.53;;
16352;SDS011;8286;51.274;9.542;2023-04-24T10:32:19;2.13;;;2.03;;
16352;SDS011;8286;51.274;9.542;2023-04-24T10:34:45;2.47;;;1.80;;
16352;SDS011;8286;51.274;9.542;2023-04-24T10:37:12;2.30;;;1.67;;
16352;SDS011;8286;51.274;9.542;2023-04-24T10:39:39;3.50;;;1.70;;
16352;SDS011;8286;51.274;9.542;2023-04-24T10:42:13;1.63;;;1.53;;
16352;SDS011;8286;51.274;9.542;2023-04-24T10:44:42;2.00;;;1.57;;
16352;SDS011;8286;51.274;9.542;2023-04-24T10:47:12;1.60;;;1.50;;
16352;SDS011;8286;51.274;9.542;2023-04-24T10:49:39;3.97;;;2.07;;
16352;SDS011;8286;51.274;9.542;2023-04-24T10:52:06;1.90;;;1.80;;
16352;SDS011;8286;51.274;9.542;2023-04-24T10:54:36;2.50;;;1.70;;
16352;SDS011;8286;51.274;9.542;2023-04-24T10:57:26;1.80;;;1.70;;
16352;SDS011;8286;51.274;9.542;2023-04-24T11:00:16;1.87;;;1.77;;
16352;SDS011;8286;51.274;9.542;2023-04-24T11:02:45;1.87;;;1.77;;
16352;SDS011;8286;51.274;9.542;2023-04-24T11:05:15;2.47;;;1.93;;
16352;SDS011;8286;51.274;9.542;2023-04-24T11:10:38;2.23;;;2.03;;
16352;SDS011;8286;51.274;9.542;2023-04-24T11:13:06;2.20;;;2.00;;
16352;SDS011;8286;51.274;9.542;2023-04-24T11:15:34;2.70;;;2.50;;
16352;SDS011;8286;51.274;9.542;2023-04-24T11:18:00;2.00;;;1.90;;
16352;SDS011;8286;51.274;9.542;2023-04-24T11:20:27;1.63;;;1.57;;
16352;SDS011;8286;51.274;9.542;2023-04-24T11:22:54;1.10;;;1.00;;
16352;SDS011;8286;51.274;9.542;2023-04-24T11:25:22;0.97;;;0.87;;
16352;SDS011;8286;51.274;9.542;2023-04-24T11:27:50;1.10;;;1.00;;
16352;SDS011;8286;51.274;9.542;2023-04-24T11:30:17;2.27;;;1.30;;
16352;SDS011;8286;51.274;9.542;2023-04-24T11:32:47;2.57;;;1.87;;
16352;SDS011;8286;51.274;9.542;2023-04-24T11:35:15;1.17;;;1.17;;
16352;SDS011;8286;51.274;9.542;2023-04-24T11:37:43;0.90;;;0.90;;
16352;SDS011;8286;51.274;9.542;2023-04-24T11:40:12;0.80;;;0.80;;
16352;SDS011;8286;51.274;9.542;2023-04-24T11:42:42;1.03;;;0.60;;
16352;SDS011;8286;51.274;9.542;2023-04-24T11:45:10;0.63;;;0.50;;
16352;SDS011;8286;51.274;9.542;2023-04-24T11:47:38;0.60;;;0.40;;
16352;SDS011;8286;51.274;9.542;2023-04-24T11:50:07;0.80;;;0.80;;
16352;SDS011;8286;51.274;9.542;2023-04-24T11:52:37;0.70;;;0.70;;
16352;SDS011;8286;51.274;9.542;2023-04-24T11:55:06;0.40;;;0.40;;
16352;SDS011;8286;51.274;9.542;2023-04-24T11:57:33;0.60;;;0.60;;
16352;SDS011;8286;51.274;9.542;2023-04-24T12:00:01;0.83;;;0.63;;
16352;SDS011;8286;51.274;9.542;2023-04-24T12:02:29;1.10;;;0.40;;
16352;SDS011;8286;51.274;9.542;2023-04-24T12:04:55;0.40;;;0.40;;
16352;SDS011;8286;51.274;9.542;2023-04-24T12:07:23;0.40;;;0.40;;
16352;SDS011;8286;51.274;9.542;2023-04-24T12:09:55;0.40;;;0.40;;
16352;SDS011;8286;51.274;9.542;2023-04-24T12:12:24;0.40;;;0.40;;
16352;SDS011;8286;51.274;9.542;2023-04-24T12:14:52;0.40;;;0.40;;
16352;SDS011;8286;51.274;9.542;2023-04-24T12:17:23;0.40;;;0.40;;
16352;SDS011;8286;51.274;9.542;2023-04-24T12:19:50;0.73;;;0.40;;
16352;SDS011;8286;51.274;9.542;2023-04-24T12:22:18;0.50;;;0.50;;
16352;SDS011;8286;51.274;9.542;2023-04-24T12:24:59;0.40;;;0.40;;
16352;SDS011;8286;51.274;9.542;2023-04-24T12:27:28;0.40;;;0.40;;
16352;SDS011;8286;51.274;9.542;2023-04-24T12:29:56;0.40;;;0.40;;
16352;SDS011;8286;51.274;9.542;2023-04-24T12:32:23;0.40;;;0.40;;
16352;SDS011;8286;51.274;9.542;2023-04-24T12:34:50;0.63;;;0.40;;
16352;SDS011;8286;51.274;9.542;2023-04-24T12:37:17;0.50;;;0.50;;
16352;SDS011;8286;51.274;9.542;2023-04-24T12:40:04;0.60;;;0.60;;
16352;SDS011;8286;51.274;9.542;2023-04-24T12:42:34;0.60;;;0.60;;
16352;SDS011;8286;51.274;9.542;2023-04-24T12:45:02;0.70;;;0.70;;
16352;SDS011;8286;51.274;9.542;2023-04-24T12:47:30;0.60;;;0.60;;
16352;SDS011;8286;51.274;9.542;2023-04-24T12:49:57;0.60;;;0.60;;
16352;SDS011;8286;51.274;9.542;2023-04-24T12:52:23;0.53;;;0.53;;
16352;SDS011;8286;51.274;9.542;2023-04-24T12:54:52;0.60;;;0.60;;
16352;SDS011;8286;51.274;9.542;2023-04-24T12:57:20;0.70;;;0.70;;
16352;SDS011;8286;51.274;9.542;2023-04-24T12:59:47;0.30;;;0.30;;
16352;SDS011;8286;51.274;9.542;2023-04-24T13:02:13;0.73;;;0.70;;
16352;SDS011;8286;51.274;9.542;2023-04-24T13:04:42;0.60;;;0.60;;
16352;SDS011;8286;51.274;9.542;2023-04-24T13:07:09;0.50;;;0.50;;
16352;SDS011;8286;51.274;9.542;2023-04-24T13:09:36;0.50;;;0.50;;
16352;SDS011;8286;51.274;9.542;2023-04-24T13:12:02;0.43;;;0.43;;
16352;SDS011;8286;51.274;9.542;2023-04-24T13:14:31;0.40;;;0.40;;
16352;SDS011;8286;51.274;9.542;2023-04-24T13:16:58;0.53;;;0.53;;
16352;SDS011;8286;51.274;9.542;2023-04-24T13:19:26;0.40;;;0.40;;
16352;SDS011;8286;51.274;9.542;2023-04-24T13:21:53;1.60;;;0.50;;
16352;SDS011;8286;51.274;9.542;2023-04-24T13:24:21;0.53;;;0.50;;
16352;SDS011;8286;51.274;9.542;2023-04-24T13:26:49;0.40;;;0.40;;
16352;SDS011;8286;51.274;9.542;2023-04-24T13:29:16;1.67;;;0.50;;
16352;SDS011;8286;51.274;9.542;2023-04-24T13:31:44;0.40;;;0.40;;
16352;SDS011;8286;51.274;9.542;2023-04-24T13:34:10;0.53;;;0.40;;
16352;SDS011;8286;51.274;9.542;2023-04-24T13:36:37;0.50;;;0.50;;
16352;SDS011;8286;51.274;9.542;2023-04-24T13:39:04;1.50;;;0.40;;
16352;SDS011;8286;51.274;9.542;2023-04-24T13:41:32;0.50;;;0.50;;
16352;SDS011;8286;51.274;9.542;2023-04-24T13:43:59;0.50;;;0.50;;
16352;SDS011;8286;51.274;9.542;2023-04-24T13:46:26;0.40;;;0.40;;
16352;SDS011;8286;51.274;9.542;2023-04-24T13:48:53;0.50;;;0.50;;
16352;SDS011;8286;51.274;9.542;2023-04-24T13:51:20;0.57;;;0.57;;
16352;SDS011;8286;51.274;9.542;2023-04-24T13:53:46;0.50;;;0.50;;
16352;SDS011;8286;51.274;9.542;2023-04-24T13:56:13;0.60;;;0.60;;
16352;SDS011;8286;51.274;9.542;2023-04-24T13:58:39;0.40;;;0.40;;
16352;SDS011;8286;51.274;9.542;2023-04-24T14:01:06;0.50;;;0.50;;
16352;SDS011;8286;51.274;9.542;2023-04-24T14:03:33;0.67;;;0.67;;
16352;SDS011;8286;51.274;9.542;2023-04-24T14:06:01;0.53;;;0.53;;
16352;SDS011;8286;51.274;9.542;2023-04-24T14:08:27;0.67;;;0.67;;
16352;SDS011;8286;51.274;9.542;2023-04-24T14:10:54;1.60;;;0.60;;
16352;SDS011;8286;51.274;9.542;2023-04-24T14:13:20;0.70;;;0.70;;
16352;SDS011;8286;51.274;9.542;2023-04-24T14:15:47;1.00;;;1.00;;
16352;SDS011;8286;51.274;9.542;2023-04-24T14:18:13;0.87;;;0.87;;
16352;SDS011;8286;51.274;9.542;2023-04-24T14:20:40;1.00;;;1.00;;
16352;SDS011;8286;51.274;9.542;2023-04-24T14:23:08;1.27;;;1.17;;
16352;SDS011;8286;51.274;9.542;2023-04-24T14:25:34;0.80;;;0.80;;
16352;SDS011;8286;51.274;9.542;2023-04-24T14:28:01;3.27;;;1.00;;
16352;SDS011;8286;51.274;9.542;2023-04-24T14:30:27;0.70;;;0.70;;
16352;SDS011;8286;51.274;9.542;2023-04-24T14:32:54;1.87;;;0.90;;
16352;SDS011;8286;51.274;9.542;2023-04-24T14:35:20;1.00;;;1.00;;
16352;SDS011;8286;51.274;9.542;2023-04-24T14:37:47;1.10;;;1.10;;
16352;SDS011;8286;51.274;9.542;2023-04-24T14:40:16;0.90;;;0.90;;
16352;SDS011;8286;51.274;9.542;2023-04-24T14:42:42;1.70;;;1.17;;
16352;SDS011;8286;51.274;9.542;2023-04-24T14:45:09;1.60;;;1.50;;
16352;SDS011;8286;51.274;9.542;2023-04-24T14:47:36;1.77;;;1.10;;
16352;SDS011;8286;51.274;9.542;2023-04-24T14:50:03;3.43;;;1.30;;
16352;SDS011;8286;51.274;9.542;2023-04-24T14:52:30;2.20;;;1.27;;
16352;SDS011;8286;51.274;9.542;2023-04-24T14:54:56;1.53;;;1.43;;
16352;SDS011;8286;51.274;9.542;2023-04-24T14:57:24;1.50;;;1.20;;
16352;SDS011;8286;51.274;9.542;2023-04-24T14:59:51;1.30;;;1.30;;
16352;SDS011;8286;51.274;9.542;2023-04-24T15:02:17;1.90;;;1.50;;
16352;SDS011;8286;51.274;9.542;2023-04-24T15:04:44;2.17;;;1.60;;